sensor_id;sensor_type;location;lat;lon;timestamp;P1;durP1;ratioP1;P2;durP2;ratioP2
38603;SDS011;24924;50.054;8.790;2023-05-31T00:01:38;2.60;;;1.00;;
38603;SDS011;24924;50.054;8.790;2023-05-31T00:04:04;2.60;;;0.90;;
38603;SDS011;24924;50.054;8.790;2023-05-31T00:06:32;2.60;;;1.00;;
38603;SDS011;24924;50.054;8.790;2023-05-31T00:08:57;2.60;;;1.00;;
38603;SDS011;24924;50.054;8.790;2023-05-31T00:11:24;2.60;;;1.00;;
38603;SDS011;24924;50.054;8.790;2023-05-31T00:13:52;2.70;;;1.07;;
38603;SDS011;24924;50.054;8.790;2023-05-31T00:16:18;2.60;;;1.00;;
38603;SDS011;24924;50.054;8.790;2023-05-31T00:18:44;3.13;;;1.23;;
38603;SDS011;24924;50.054;8.790;2023-05-31T00:21:10;2.70;;;1.20;;
38603;SDS011;24924;50.054;8.790;2023-05-31T00:23:36;2.70;;;1.00;;
38603;SDS011;24924;50.054;8.790;2023-05-31T00:26:02;2.60;;;0.90;;
38603;SDS011;24924;50.054;8.790;2023-05-31T00:28:28;2.92;;;1.20;;
38603;SDS011;24924;50.054;8.790;2023-05-31T00:30:54;2.60;;;0.97;;
38603;SDS011;24924;50.054;8.790;2023-05-31T00:33:20;2.90;;;1.15;;
38603;SDS011;24924;50.054;8.790;2023-05-31T00:35:46;2.60;;;1.00;;
38603;SDS011;24924;50.054;8.790;2023-05-31T00:38:12;2.83;;;1.20;;
38603;SDS011;24924;50.054;8.790;2023-05-31T00:40:39;2.70;;;1.10;;
38603;SDS011;24924;50.054;8.790;2023-05-31T00:43:05;2.60;;;1.00;;
38603;SDS011;24924;50.054;8.790;2023-05-31T00:45:32;2.60;;;1.00;;
38603;SDS011;24924;50.054;8.790;2023-05-31T00:48:02;2.60;;;1.00;;
38603;SDS011;24924;50.054;8.790;2023-05-31T00:50:29;2.60;;;0.90;;
38603;SDS011;24924;50.054;8.790;2023-05-31T00:52:56;2.70;;;1.10;;
38603;SDS011;24924;50.054;8.790;2023-05-31T00:55:23;2.70;;;1.00;;
38603;SDS011;24924;50.054;8.790;2023-05-31T00:57:49;2.70;;;1.10;;
38603;SDS011;24924;50.054;8.790;2023-05-31T01:00:16;2.80;;;1.20;;
38603;SDS011;24924;50.054;8.790;2023-05-31T01:02:43;2.60;;;1.00;;
38603;SDS011;24924;50.054;8.790;2023-05-31T01:05:09;2.60;;;0.90;;
38603;SDS011;24924;50.054;8.790;2023-05-31T01:07:35;2.70;;;1.20;;
38603;SDS011;24924;50.054;8.790;2023-05-31T01:10:02;2.60;;;1.00;;
38603;SDS011;24924;50.054;8.790;2023-05-31T01:15:26;2.60;;;1.00;;
38603;SDS011;24924;50.054;8.790;2023-05-31T01:18:00;2.80;;;1.30;;
38603;SDS011;24924;50.054;8.790;2023-05-31T01:20:37;2.60;;;1.00;;
38603;SDS011;24924;50.054;8.790;2023-05-31T01:26:27;2.70;;;1.17;;
38603;SDS011;24924;50.054;8.790;2023-05-31T01:28:59;2.60;;;0.88;;
38603;SDS011;24924;50.054;8.790;2023-05-31T01:31:29;2.90;;;1.20;;
38603;SDS011;24924;50.054;8.790;2023-05-31T01:33:58;2.60;;;0.90;;
38603;SDS011;24924;50.054;8.790;2023-05-31T01:36:24;2.70;;;1.00;;
38603;SDS011;24924;50.054;8.790;2023-05-31T01:38:50;2.70;;;1.10;;
38603;SDS011;24924;50.054;8.790;2023-05-31T01:41:16;2.70;;;1.10;;
38603;SDS011;24924;50.054;8.790;2023-05-31T01:43:44;2.78;;;1.05;;
38603;SDS011;24924;50.054;8.790;2023-05-31T01:46:12;2.70;;;1.10;;
38603;SDS011;24924;50.054;8.790;2023-05-31T01:48:40;4.28;;;1.30;;
38603;SDS011;24924;50.054;8.790;2023-05-31T01:51:08;2.70;;;1.17;;
38603;SDS011;24924;50.054;8.790;2023-05-31T01:53:36;2.70;;;1.20;;
38603;SDS011;24924;50.054;8.790;2023-05-31T01:56:02;2.70;;;1.10;;
38603;SDS011;24924;50.054;8.790;2023-05-31T01:58:30;2.60;;;1.00;;
38603;SDS011;24924;50.054;8.790;2023-05-31T02:00:58;2.70;;;1.08;;
38603;SDS011;24924;50.054;8.790;2023-05-31T02:03:24;2.80;;;1.30;;
38603;SDS011;24924;50.054;8.790;2023-05-31T02:05:58;2.80;;;1.30;;
38603;SDS011;24924;50.054;8.790;2023-05-31T02:08:25;2.70;;;1.02;;
38603;SDS011;24924;50.054;8.790;2023-05-31T02:10:51;2.60;;;1.00;;
38603;SDS011;24924;50.054;8.790;2023-05-31T02:13:18;2.70;;;1.20;;
38603;SDS011;24924;50.054;8.790;2023-05-31T02:15:44;2.70;;;1.10;;
38603;SDS011;24924;50.054;8.790;2023-05-31T02:18:10;2.80;;;1.25;;
38603;SDS011;24924;50.054;8.790;2023-05-31T02:20:35;2.65;;;1.00;;
38603;SDS011;24924;50.054;8.790;2023-05-31T02:23:01;2.70;;;1.20;;
38603;SDS011;24924;50.054;8.790;2023-05-31T02:25:30;2.60;;;1.00;;
38603;SDS011;24924;50.054;8.790;2023-05-31T02:27:56;2.70;;;1.20;;
38603;SDS011;24924;50.054;8.790;2023-05-31T02:30:26;2.70;;;1.10;;
38603;SDS011;24924;50.054;8.790;2023-05-31T02:32:53;2.70;;;1.20;;
38603;SDS011;24924;50.054;8.790;2023-05-31T02:35:19;2.60;;;1.00;;
38603;SDS011;24924;50.054;8.790;2023-05-31T02:37:47;2.70;;;1.20;;
38603;SDS011;24924;50.054;8.790;2023-05-31T02:40:13;2.70;;;1.10;;
38603;SDS011;24924;50.054;8.790;2023-05-31T02:42:40;2.72;;;1.13;;
38603;SDS011;24924;50.054;8.790;2023-05-31T02:45:10;2.70;;;1.08;;
38603;SDS011;24924;50.054;8.790;2023-05-31T02:47:37;2.60;;;0.97;;
38603;SDS011;24924;50.054;8.790;2023-05-31T02:50:05;2.70;;;1.10;;
38603;SDS011;24924;50.054;8.790;2023-05-31T02:52:35;2.70;;;1.10;;
38603;SDS011;24924;50.054;8.790;2023-05-31T02:55:12;2.83;;;1.23;;
38603;SDS011;24924;50.054;8.790;2023-05-31T02:58:07;2.70;;;1.20;;
38603;SDS011;24924;50.054;8.790;2023-05-31T03:00:38;2.70;;;1.10;;
38603;SDS011;24924;50.054;8.790;2023-05-31T03:03:04;2.70;;;1.13;;
38603;SDS011;24924;50.054;8.790;2023-05-31T03:05:55;2.70;;;1.20;;
38603;SDS011;24924;50.054;8.790;2023-05-31T03:08:22;2.70;;;1.20;;
38603;SDS011;24924;50.054;8.790;2023-05-31T03:10:49;2.65;;;1.10;;
38603;SDS011;24924;50.054;8.790;2023-05-31T03:13:15;2.70;;;1.20;;
38603;SDS011;24924;50.054;8.790;2023-05-31T03:15:41;2.70;;;1.08;;
38603;SDS011;24924;50.054;8.790;2023-05-31T03:18:08;2.70;;;1.20;;
38603;SDS011;24924;50.054;8.790;2023-05-31T03:20:37;2.70;;;1.20;;
38603;SDS011;24924;50.054;8.790;2023-05-31T03:23:03;2.70;;;1.10;;
38603;SDS011;24924;50.054;8.790;2023-05-31T03:25:29;2.60;;;1.00;;
38603;SDS011;24924;50.054;8.790;2023-05-31T03:27:55;2.70;;;1.20;;
38603;SDS011;24924;50.054;8.790;2023-05-31T03:30:23;2.90;;;1.40;;
38603;SDS011;24924;50.054;8.790;2023-05-31T03:32:55;2.80;;;1.38;;
38603;SDS011;24924;50.054;8.790;2023-05-31T03:35:21;2.63;;;1.10;;
38603;SDS011;24924;50.054;8.790;2023-05-31T03:37:47;2.85;;;1.48;;
38603;SDS011;24924;50.054;8.790;2023-05-31T03:40:14;2.70;;;1.05;;
38603;SDS011;24924;50.054;8.790;2023-05-31T03:42:39;3.07;;;1.67;;
38603;SDS011;24924;50.054;8.790;2023-05-31T03:45:07;2.70;;;1.10;;
38603;SDS011;24924;50.054;8.790;2023-05-31T03:47:33;2.70;;;1.20;;
38603;SDS011;24924;50.054;8.790;2023-05-31T03:50:00;2.60;;;1.00;;
38603;SDS011;24924;50.054;8.790;2023-05-31T03:52:26;2.60;;;1.00;;
38603;SDS011;24924;50.054;8.790;2023-05-31T03:54:52;2.73;;;1.30;;
38603;SDS011;24924;50.054;8.790;2023-05-31T03:57:20;2.85;;;1.35;;
38603;SDS011;24924;50.054;8.790;2023-05-31T03:59:46;2.90;;;1.27;;
38603;SDS011;24924;50.054;8.790;2023-05-31T04:02:12;2.70;;;1.20;;
38603;SDS011;24924;50.054;8.790;2023-05-31T04:04:38;2.80;;;1.25;;
38603;SDS011;24924;50.054;8.790;2023-05-31T04:07:04;2.70;;;1.10;;
38603;SDS011;24924;50.054;8.790;2023-05-31T04:09:31;2.70;;;1.13;;
38603;SDS011;24924;50.054;8.790;2023-05-31T04:11:57;2.70;;;1.10;;
38603;SDS011;24924;50.054;8.790;2023-05-31T04:14:24;2.70;;;1.10;;
38603;SDS011;24924;50.054;8.790;2023-05-31T04:16:50;2.70;;;1.10;;
38603;SDS011;24924;50.054;8.790;2023-05-31T04:19:16;2.77;;;1.30;;
38603;SDS011;24924;50.054;8.790;2023-05-31T04:21:43;2.70;;;1.13;;
38603;SDS011;24924;50.054;8.790;2023-05-31T04:24:11;2.80;;;1.30;;
38603;SDS011;24924;50.054;8.790;2023-05-31T04:26:37;2.70;;;1.10;;
38603;SDS011;24924;50.054;8.790;2023-05-31T04:29:04;2.70;;;1.10;;
38603;SDS011;24924;50.054;8.790;2023-05-31T04:31:31;2.55;;;1.00;;
38603;SDS011;24924;50.054;8.790;2023-05-31T04:34:01;2.70;;;1.17;;
38603;SDS011;24924;50.054;8.790;2023-05-31T04:36:31;2.70;;;1.23;;
38603;SDS011;24924;50.054;8.790;2023-05-31T04:38:58;2.70;;;1.10;;
38603;SDS011;24924;50.054;8.790;2023-05-31T04:41:28;2.80;;;1.30;;
38603;SDS011;24924;50.054;8.790;2023-05-31T04:43:55;2.70;;;1.10;;
38603;SDS011;24924;50.054;8.790;2023-05-31T04:46:24;2.70;;;1.20;;
38603;SDS011;24924;50.054;8.790;2023-05-31T04:48:51;2.70;;;1.20;;
38603;SDS011;24924;50.054;8.790;2023-05-31T04:51:18;2.70;;;1.10;;
38603;SDS011;24924;50.054;8.790;2023-05-31T04:53:45;2.70;;;1.20;;
38603;SDS011;24924;50.054;8.790;2023-05-31T04:56:13;2.70;;;1.08;;
38603;SDS011;24924;50.054;8.790;2023-05-31T04:58:39;2.70;;;1.10;;
38603;SDS011;24924;50.054;8.790;2023-05-31T05:01:06;2.70;;;1.15;;
38603;SDS011;24924;50.054;8.790;2023-05-31T05:03:41;2.70;;;1.10;;
38603;SDS011;24924;50.054;8.790;2023-05-31T05:06:14;2.90;;;1.20;;
38603;SDS011;24924;50.054;8.790;2023-05-31T05:08:45;2.70;;;1.10;;
38603;SDS011;24924;50.054;8.790;2023-05-31T05:11:13;2.78;;;1.15;;
38603;SDS011;24924;50.054;8.790;2023-05-31T05:13:39;2.90;;;1.20;;
38603;SDS011;24924;50.054;8.790;2023-05-31T05:16:06;3.20;;;1.30;;
38603;SDS011;24924;50.054;8.790;2023-05-31T05:18:32;2.80;;;1.30;;
38603;SDS011;24924;50.054;8.790;2023-05-31T05:20:58;2.60;;;0.90;;
38603;SDS011;24924;50.054;8.790;2023-05-31T05:23:27;2.60;;;1.00;;
38603;SDS011;24924;50.054;8.790;2023-05-31T05:25:55;2.70;;;1.10;;
38603;SDS011;24924;50.054;8.790;2023-05-31T05:28:23;2.60;;;1.08;;
38603;SDS011;24924;50.054;8.790;2023-05-31T05:30:50;2.67;;;1.07;;
38603;SDS011;24924;50.054;8.790;2023-05-31T05:33:16;2.70;;;1.10;;
38603;SDS011;24924;50.054;8.790;2023-05-31T05:35:43;2.67;;;1.02;;
38603;SDS011;24924;50.054;8.790;2023-05-31T05:38:08;2.67;;;1.02;;
38603;SDS011;24924;50.054;8.790;2023-05-31T05:40:35;3.00;;;1.30;;
38603;SDS011;24924;50.054;8.790;2023-05-31T05:43:01;2.60;;;1.00;;
38603;SDS011;24924;50.054;8.790;2023-05-31T05:45:28;2.70;;;1.20;;
38603;SDS011;24924;50.054;8.790;2023-05-31T05:47:54;2.60;;;0.90;;
38603;SDS011;24924;50.054;8.790;2023-05-31T05:50:21;2.60;;;1.00;;
38603;SDS011;24924;50.054;8.790;2023-05-31T05:52:47;2.60;;;1.00;;
38603;SDS011;24924;50.054;8.790;2023-05-31T05:55:13;2.70;;;1.10;;
38603;SDS011;24924;50.054;8.790;2023-05-31T05:57:39;2.60;;;0.90;;
38603;SDS011;24924;50.054;8.790;2023-05-31T06:00:37;2.70;;;1.10;;
38603;SDS011;24924;50.054;8.790;2023-05-31T06:03:06;2.60;;;0.93;;
38603;SDS011;24924;50.054;8.790;2023-05-31T06:05:34;2.60;;;0.90;;
38603;SDS011;24924;50.054;8.790;2023-05-31T06:08:00;2.75;;;1.23;;
38603;SDS011;24924;50.054;8.790;2023-05-31T06:10:28;2.60;;;1.00;;
38603;SDS011;24924;50.054;8.790;2023-05-31T06:12:54;2.72;;;1.23;;
38603;SDS011;24924;50.054;8.790;2023-05-31T06:15:21;2.70;;;1.00;;
38603;SDS011;24924;50.054;8.790;2023-05-31T06:17:47;2.60;;;1.00;;
38603;SDS011;24924;50.054;8.790;2023-05-31T06:20:14;2.60;;;0.98;;
38603;SDS011;24924;50.054;8.790;2023-05-31T06:22:41;2.60;;;0.90;;
38603;SDS011;24924;50.054;8.790;2023-05-31T06:25:07;2.60;;;1.00;;
38603;SDS011;24924;50.054;8.790;2023-05-31T06:27:33;2.60;;;0.90;;
38603;SDS011;24924;50.054;8.790;2023-05-31T06:30:00;2.63;;;1.00;;
38603;SDS011;24924;50.054;8.790;2023-05-31T06:32:31;2.60;;;0.90;;
38603;SDS011;24924;50.054;8.790;2023-05-31T06:34:58;2.60;;;0.90;;
38603;SDS011;24924;50.054;8.790;2023-05-31T06:37:24;2.50;;;0.87;;
38603;SDS011;24924;50.054;8.790;2023-05-31T06:39:50;2.60;;;1.00;;
38603;SDS011;24924;50.054;8.790;2023-05-31T06:42:16;2.90;;;1.23;;
38603;SDS011;24924;50.054;8.790;2023-05-31T06:44:42;2.60;;;0.90;;
38603;SDS011;24924;50.054;8.790;2023-05-31T06:47:15;2.60;;;0.90;;
38603;SDS011;24924;50.054;8.790;2023-05-31T06:50:00;2.72;;;1.10;;
38603;SDS011;24924;50.054;8.790;2023-05-31T06:52:45;2.70;;;1.10;;
38603;SDS011;24924;50.054;8.790;2023-05-31T06:55:34;2.60;;;1.00;;
38603;SDS011;24924;50.054;8.790;2023-05-31T06:58:01;2.95;;;1.35;;
38603;SDS011;24924;50.054;8.790;2023-05-31T07:00:30;2.60;;;1.00;;
38603;SDS011;24924;50.054;8.790;2023-05-31T07:02:57;2.50;;;0.80;;
38603;SDS011;24924;50.054;8.790;2023-05-31T07:05:24;2.58;;;0.90;;
38603;SDS011;24924;50.054;8.790;2023-05-31T07:07:53;2.70;;;1.00;;
38603;SDS011;24924;50.054;8.790;2023-05-31T07:10:19;2.50;;;0.90;;
38603;SDS011;24924;50.054;8.790;2023-05-31T07:12:45;2.63;;;0.73;;
38603;SDS011;24924;50.054;8.790;2023-05-31T07:15:11;2.60;;;1.08;;
38603;SDS011;24924;50.054;8.790;2023-05-31T07:17:37;2.50;;;0.80;;
38603;SDS011;24924;50.054;8.790;2023-05-31T07:20:04;2.60;;;0.90;;
38603;SDS011;24924;50.054;8.790;2023-05-31T07:22:31;2.60;;;1.00;;
38603;SDS011;24924;50.054;8.790;2023-05-31T07:24:57;2.60;;;1.00;;
38603;SDS011;24924;50.054;8.790;2023-05-31T07:27:24;2.50;;;1.02;;
38603;SDS011;24924;50.054;8.790;2023-05-31T07:29:50;2.45;;;0.80;;
38603;SDS011;24924;50.054;8.790;2023-05-31T07:32:16;2.80;;;0.90;;
38603;SDS011;24924;50.054;8.790;2023-05-31T07:34:42;2.50;;;0.80;;
38603;SDS011;24924;50.054;8.790;2023-05-31T07:37:09;2.60;;;0.80;;
38603;SDS011;24924;50.054;8.790;2023-05-31T07:39:35;2.60;;;1.00;;
38603;SDS011;24924;50.054;8.790;2023-05-31T07:42:01;2.53;;;0.77;;
38603;SDS011;24924;50.054;8.790;2023-05-31T07:44:27;2.53;;;0.90;;
38603;SDS011;24924;50.054;8.790;2023-05-31T07:46:54;2.30;;;0.70;;
38603;SDS011;24924;50.054;8.790;2023-05-31T07:49:20;2.40;;;0.90;;
38603;SDS011;24924;50.054;8.790;2023-05-31T07:51:46;2.45;;;0.80;;
38603;SDS011;24924;50.054;8.790;2023-05-31T07:54:12;2.30;;;0.70;;
38603;SDS011;24924;50.054;8.790;2023-05-31T07:56:38;2.35;;;0.85;;
38603;SDS011;24924;50.054;8.790;2023-05-31T07:59:05;2.30;;;0.90;;
38603;SDS011;24924;50.054;8.790;2023-05-31T08:01:32;2.50;;;1.13;;
38603;SDS011;24924;50.054;8.790;2023-05-31T08:04:06;2.10;;;0.67;;
38603;SDS011;24924;50.054;8.790;2023-05-31T08:06:32;2.30;;;0.70;;
38603;SDS011;24924;50.054;8.790;2023-05-31T08:08:59;2.70;;;1.00;;
38603;SDS011;24924;50.054;8.790;2023-05-31T08:11:25;2.40;;;0.90;;
38603;SDS011;24924;50.054;8.790;2023-05-31T08:13:51;3.45;;;0.80;;
38603;SDS011;24924;50.054;8.790;2023-05-31T08:16:18;3.07;;;0.90;;
38603;SDS011;24924;50.054;8.790;2023-05-31T08:18:44;2.60;;;0.90;;
38603;SDS011;24924;50.054;8.790;2023-05-31T08:21:14;2.30;;;0.70;;
38603;SDS011;24924;50.054;8.790;2023-05-31T08:23:40;2.25;;;0.70;;
38603;SDS011;24924;50.054;8.790;2023-05-31T08:26:06;2.23;;;0.70;;
38603;SDS011;24924;50.054;8.790;2023-05-31T08:28:32;2.30;;;0.70;;
38603;SDS011;24924;50.054;8.790;2023-05-31T08:30:58;2.25;;;0.75;;
38603;SDS011;24924;50.054;8.790;2023-05-31T08:33:27;2.50;;;0.80;;
38603;SDS011;24924;50.054;8.790;2023-05-31T08:35:57;3.77;;;0.90;;
38603;SDS011;24924;50.054;8.790;2023-05-31T08:38:29;2.20;;;0.80;;
38603;SDS011;24924;50.054;8.790;2023-05-31T08:41:00;2.20;;;0.60;;
38603;SDS011;24924;50.054;8.790;2023-05-31T08:43:27;2.38;;;0.80;;
38603;SDS011;24924;50.054;8.790;2023-05-31T08:45:54;2.15;;;0.70;;
38603;SDS011;24924;50.054;8.790;2023-05-31T08:48:26;2.27;;;0.70;;
38603;SDS011;24924;50.054;8.790;2023-05-31T08:50:58;2.17;;;0.70;;
38603;SDS011;24924;50.054;8.790;2023-05-31T08:53:26;2.42;;;0.70;;
38603;SDS011;24924;50.054;8.790;2023-05-31T08:55:53;2.63;;;1.00;;
38603;SDS011;24924;50.054;8.790;2023-05-31T08:58:19;2.22;;;0.70;;
38603;SDS011;24924;50.054;8.790;2023-05-31T09:00:46;2.23;;;0.70;;
38603;SDS011;24924;50.054;8.790;2023-05-31T09:03:12;2.60;;;0.95;;
38603;SDS011;24924;50.054;8.790;2023-05-31T09:05:38;2.30;;;0.70;;
38603;SDS011;24924;50.054;8.790;2023-05-31T09:08:04;2.15;;;0.70;;
38603;SDS011;24924;50.054;8.790;2023-05-31T09:10:30;2.17;;;0.70;;
38603;SDS011;24924;50.054;8.790;2023-05-31T09:12:57;2.60;;;0.70;;
38603;SDS011;24924;50.054;8.790;2023-05-31T09:15:23;2.65;;;1.00;;
38603;SDS011;24924;50.054;8.790;2023-05-31T09:17:50;2.22;;;0.70;;
38603;SDS011;24924;50.054;8.790;2023-05-31T09:20:17;2.20;;;0.65;;
38603;SDS011;24924;50.054;8.790;2023-05-31T09:22:47;2.63;;;1.00;;
38603;SDS011;24924;50.054;8.790;2023-05-31T09:25:14;2.03;;;0.60;;
38603;SDS011;24924;50.054;8.790;2023-05-31T09:27:40;12.88;;;0.95;;
38603;SDS011;24924;50.054;8.790;2023-05-31T09:30:10;2.30;;;0.70;;
38603;SDS011;24924;50.054;8.790;2023-05-31T09:32:38;2.08;;;0.60;;
38603;SDS011;24924;50.054;8.790;2023-05-31T09:35:11;2.03;;;0.70;;
38603;SDS011;24924;50.054;8.790;2023-05-31T09:37:43;2.30;;;0.70;;
38603;SDS011;24924;50.054;8.790;2023-05-31T09:40:11;2.20;;;0.70;;
38603;SDS011;24924;50.054;8.790;2023-05-31T09:42:38;2.20;;;0.68;;
38603;SDS011;24924;50.054;8.790;2023-05-31T09:45:12;2.88;;;0.90;;
38603;SDS011;24924;50.054;8.790;2023-05-31T09:47:38;2.28;;;0.70;;
38603;SDS011;24924;50.054;8.790;2023-05-31T09:50:04;2.27;;;0.70;;
38603;SDS011;24924;50.054;8.790;2023-05-31T09:52:30;2.30;;;0.73;;
38603;SDS011;24924;50.054;8.790;2023-05-31T09:55:04;2.20;;;0.70;;
38603;SDS011;24924;50.054;8.790;2023-05-31T09:57:37;2.50;;;0.88;;
38603;SDS011;24924;50.054;8.790;2023-05-31T10:00:11;2.30;;;0.73;;
38603;SDS011;24924;50.054;8.790;2023-05-31T10:02:45;2.50;;;0.80;;
38603;SDS011;24924;50.054;8.790;2023-05-31T10:05:13;2.30;;;0.70;;
38603;SDS011;24924;50.054;8.790;2023-05-31T10:07:44;2.03;;;0.60;;
38603;SDS011;24924;50.054;8.790;2023-05-31T10:10:12;2.20;;;0.70;;
38603;SDS011;24924;50.054;8.790;2023-05-31T10:13:00;2.10;;;0.60;;
38603;SDS011;24924;50.054;8.790;2023-05-31T10:15:26;2.40;;;0.70;;
38603;SDS011;24924;50.054;8.790;2023-05-31T10:18:03;3.55;;;0.85;;
38603;SDS011;24924;50.054;8.790;2023-05-31T10:20:37;2.30;;;0.77;;
38603;SDS011;24924;50.054;8.790;2023-05-31T10:23:11;2.50;;;0.70;;
38603;SDS011;24924;50.054;8.790;2023-05-31T10:26:25;2.10;;;0.60;;
38603;SDS011;24924;50.054;8.790;2023-05-31T10:28:44;2.50;;;0.70;;
38603;SDS011;24924;50.054;8.790;2023-05-31T10:31:30;2.38;;;0.60;;
38603;SDS011;24924;50.054;8.790;2023-05-31T10:34:06;2.25;;;0.70;;
38603;SDS011;24924;50.054;8.790;2023-05-31T10:36:49;2.30;;;0.70;;
38603;SDS011;24924;50.054;8.790;2023-05-31T10:42:19;2.37;;;0.60;;
38603;SDS011;24924;50.054;8.790;2023-05-31T10:47:59;2.53;;;0.73;;
38603;SDS011;24924;50.054;8.790;2023-05-31T10:50:56;2.40;;;0.65;;
38603;SDS011;24924;50.054;8.790;2023-05-31T10:53:45;2.20;;;0.60;;
38603;SDS011;24924;50.054;8.790;2023-05-31T10:56:12;2.20;;;0.70;;
38603;SDS011;24924;50.054;8.790;2023-05-31T10:58:43;1.80;;;0.50;;
38603;SDS011;24924;50.054;8.790;2023-05-31T11:01:14;2.60;;;0.93;;
38603;SDS011;24924;50.054;8.790;2023-05-31T11:03:44;2.25;;;0.60;;
38603;SDS011;24924;50.054;8.790;2023-05-31T11:06:13;2.35;;;0.60;;
38603;SDS011;24924;50.054;8.790;2023-05-31T11:14:01;2.33;;;0.60;;
38603;SDS011;24924;50.054;8.790;2023-05-31T11:16:33;2.30;;;0.70;;
38603;SDS011;24924;50.054;8.790;2023-05-31T11:19:20;2.20;;;0.77;;
38603;SDS011;24924;50.054;8.790;2023-05-31T11:24:28;2.20;;;0.60;;
38603;SDS011;24924;50.054;8.790;2023-05-31T11:27:02;2.28;;;0.60;;
38603;SDS011;24924;50.054;8.790;2023-05-31T11:32:09;2.20;;;0.60;;
38603;SDS011;24924;50.054;8.790;2023-05-31T11:34:47;2.50;;;0.70;;
38603;SDS011;24924;50.054;8.790;2023-05-31T11:37:13;2.00;;;0.70;;
38603;SDS011;24924;50.054;8.790;2023-05-31T11:39:43;2.10;;;0.60;;
38603;SDS011;24924;50.054;8.790;2023-05-31T11:42:10;2.33;;;0.80;;
38603;SDS011;24924;50.054;8.790;2023-05-31T11:44:40;2.00;;;0.50;;
38603;SDS011;24924;50.054;8.790;2023-05-31T11:47:09;2.30;;;0.70;;
38603;SDS011;24924;50.054;8.790;2023-05-31T11:49:36;1.83;;;0.50;;
38603;SDS011;24924;50.054;8.790;2023-05-31T11:52:03;2.00;;;0.60;;
38603;SDS011;24924;50.054;8.790;2023-05-31T11:54:30;1.70;;;0.50;;
38603;SDS011;24924;50.054;8.790;2023-05-31T11:57:04;2.20;;;0.70;;
38603;SDS011;24924;50.054;8.790;2023-05-31T11:59:34;2.73;;;0.70;;
38603;SDS011;24924;50.054;8.790;2023-05-31T12:02:02;1.75;;;0.50;;
38603;SDS011;24924;50.054;8.790;2023-05-31T12:07:02;2.10;;;0.50;;
38603;SDS011;24924;50.054;8.790;2023-05-31T12:09:32;1.98;;;0.60;;
38603;SDS011;24924;50.054;8.790;2023-05-31T12:11:59;1.80;;;0.53;;
38603;SDS011;24924;50.054;8.790;2023-05-31T12:14:26;1.98;;;0.60;;
38603;SDS011;24924;50.054;8.790;2023-05-31T12:16:52;1.77;;;0.50;;
38603;SDS011;24924;50.054;8.790;2023-05-31T12:19:19;1.90;;;0.50;;
38603;SDS011;24924;50.054;8.790;2023-05-31T12:21:45;1.60;;;0.50;;
38603;SDS011;24924;50.054;8.790;2023-05-31T12:24:13;1.70;;;0.50;;
38603;SDS011;24924;50.054;8.790;2023-05-31T12:26:44;2.03;;;0.60;;
38603;SDS011;24924;50.054;8.790;2023-05-31T12:29:13;1.80;;;0.60;;
38603;SDS011;24924;50.054;8.790;2023-05-31T12:31:39;1.70;;;0.50;;
38603;SDS011;24924;50.054;8.790;2023-05-31T12:34:10;2.30;;;0.50;;
38603;SDS011;24924;50.054;8.790;2023-05-31T12:36:44;2.00;;;0.60;;
38603;SDS011;24924;50.054;8.790;2023-05-31T12:39:18;1.50;;;0.50;;
38603;SDS011;24924;50.054;8.790;2023-05-31T12:41:49;2.05;;;0.60;;
38603;SDS011;24924;50.054;8.790;2023-05-31T12:44:20;1.80;;;0.50;;
38603;SDS011;24924;50.054;8.790;2023-05-31T12:46:50;2.10;;;0.60;;
38603;SDS011;24924;50.054;8.790;2023-05-31T12:49:23;1.83;;;0.60;;
38603;SDS011;24924;50.054;8.790;2023-05-31T12:52:08;1.88;;;0.52;;
38603;SDS011;24924;50.054;8.790;2023-05-31T12:54:38;1.90;;;0.55;;
38603;SDS011;24924;50.054;8.790;2023-05-31T12:57:05;1.98;;;0.60;;
38603;SDS011;24924;50.054;8.790;2023-05-31T12:59:34;2.10;;;0.60;;
38603;SDS011;24924;50.054;8.790;2023-05-31T13:02:01;2.23;;;0.60;;
38603;SDS011;24924;50.054;8.790;2023-05-31T13:04:28;2.00;;;0.60;;
38603;SDS011;24924;50.054;8.790;2023-05-31T13:06:54;2.00;;;0.55;;
38603;SDS011;24924;50.054;8.790;2023-05-31T13:09:22;1.92;;;0.70;;
38603;SDS011;24924;50.054;8.790;2023-05-31T13:11:49;1.90;;;0.60;;
38603;SDS011;24924;50.054;8.790;2023-05-31T13:14:17;1.90;;;0.60;;
38603;SDS011;24924;50.054;8.790;2023-05-31T13:16:45;2.05;;;0.60;;
38603;SDS011;24924;50.054;8.790;2023-05-31T13:19:12;2.17;;;0.60;;
38603;SDS011;24924;50.054;8.790;2023-05-31T13:21:38;1.95;;;0.50;;
38603;SDS011;24924;50.054;8.790;2023-05-31T13:24:05;1.95;;;0.60;;
38603;SDS011;24924;50.054;8.790;2023-05-31T13:26:33;1.73;;;0.50;;
38603;SDS011;24924;50.054;8.790;2023-05-31T13:28:59;1.65;;;0.60;;
38603;SDS011;24924;50.054;8.790;2023-05-31T13:31:26;1.60;;;0.50;;
38603;SDS011;24924;50.054;8.790;2023-05-31T13:33:53;1.70;;;0.50;;
38603;SDS011;24924;50.054;8.790;2023-05-31T13:36:20;1.80;;;0.50;;
38603;SDS011;24924;50.054;8.790;2023-05-31T13:38:46;1.70;;;0.50;;
38603;SDS011;24924;50.054;8.790;2023-05-31T13:41:12;1.70;;;0.50;;
38603;SDS011;24924;50.054;8.790;2023-05-31T13:43:38;1.90;;;0.50;;
38603;SDS011;24924;50.054;8.790;2023-05-31T13:46:05;1.67;;;0.50;;
38603;SDS011;24924;50.054;8.790;2023-05-31T13:48:34;1.80;;;0.50;;
38603;SDS011;24924;50.054;8.790;2023-05-31T13:51:01;2.03;;;0.70;;
38603;SDS011;24924;50.054;8.790;2023-05-31T13:53:28;1.60;;;0.40;;
38603;SDS011;24924;50.054;8.790;2023-05-31T13:55:55;1.80;;;0.50;;
38603;SDS011;24924;50.054;8.790;2023-05-31T13:58:20;1.67;;;0.50;;
38603;SDS011;24924;50.054;8.790;2023-05-31T14:00:47;1.65;;;0.45;;
38603;SDS011;24924;50.054;8.790;2023-05-31T14:03:14;1.88;;;0.50;;
38603;SDS011;24924;50.054;8.790;2023-05-31T14:05:40;2.03;;;0.60;;
38603;SDS011;24924;50.054;8.790;2023-05-31T14:08:06;1.80;;;0.50;;
38603;SDS011;24924;50.054;8.790;2023-05-31T14:10:33;1.97;;;0.60;;
38603;SDS011;24924;50.054;8.790;2023-05-31T14:12:59;1.90;;;0.57;;
38603;SDS011;24924;50.054;8.790;2023-05-31T14:15:25;1.58;;;0.50;;
38603;SDS011;24924;50.054;8.790;2023-05-31T14:17:51;1.60;;;0.50;;
38603;SDS011;24924;50.054;8.790;2023-05-31T14:20:17;1.70;;;0.50;;
38603;SDS011;24924;50.054;8.790;2023-05-31T14:22:43;2.10;;;0.70;;
38603;SDS011;24924;50.054;8.790;2023-05-31T14:25:10;1.77;;;0.57;;
38603;SDS011;24924;50.054;8.790;2023-05-31T14:27:36;1.77;;;0.60;;
38603;SDS011;24924;50.054;8.790;2023-05-31T14:30:02;1.63;;;0.50;;
38603;SDS011;24924;50.054;8.790;2023-05-31T14:32:29;2.10;;;0.70;;
38603;SDS011;24924;50.054;8.790;2023-05-31T14:34:55;2.13;;;0.60;;
38603;SDS011;24924;50.054;8.790;2023-05-31T14:37:21;1.70;;;0.50;;
38603;SDS011;24924;50.054;8.790;2023-05-31T14:39:47;1.67;;;0.50;;
38603;SDS011;24924;50.054;8.790;2023-05-31T14:42:13;2.87;;;0.80;;
38603;SDS011;24924;50.054;8.790;2023-05-31T14:44:40;1.55;;;0.50;;
38603;SDS011;24924;50.054;8.790;2023-05-31T14:47:06;1.83;;;0.57;;
38603;SDS011;24924;50.054;8.790;2023-05-31T14:49:32;1.80;;;0.50;;
38603;SDS011;24924;50.054;8.790;2023-05-31T14:51:58;1.52;;;0.50;;
38603;SDS011;24924;50.054;8.790;2023-05-31T14:54:24;2.10;;;0.50;;
38603;SDS011;24924;50.054;8.790;2023-05-31T14:56:51;2.15;;;0.60;;
38603;SDS011;24924;50.054;8.790;2023-05-31T14:59:18;1.55;;;0.43;;
38603;SDS011;24924;50.054;8.790;2023-05-31T15:01:44;1.60;;;0.40;;
38603;SDS011;24924;50.054;8.790;2023-05-31T15:04:13;1.50;;;0.40;;
38603;SDS011;24924;50.054;8.790;2023-05-31T15:06:40;2.22;;;0.50;;
38603;SDS011;24924;50.054;8.790;2023-05-31T15:09:07;1.50;;;0.50;;
38603;SDS011;24924;50.054;8.790;2023-05-31T15:11:33;1.40;;;0.40;;
38603;SDS011;24924;50.054;8.790;2023-05-31T15:14:00;2.50;;;0.50;;
38603;SDS011;24924;50.054;8.790;2023-05-31T15:16:26;1.10;;;0.30;;
38603;SDS011;24924;50.054;8.790;2023-05-31T15:18:52;1.52;;;0.43;;
38603;SDS011;24924;50.054;8.790;2023-05-31T15:21:18;1.20;;;0.30;;